sensor_id;sensor_type;location;lat;lon;timestamp;pressure;altitude;pressure_sealevel;temperature;humidity
4449;BME280;2237;51.870;6.160;2023-04-19T00:02:22;102626.28;;;13.19;100.00
4449;BME280;2237;51.870;6.160;2023-04-19T00:04:51;102616.69;;;13.22;100.00
4449;BME280;2237;51.870;6.160;2023-04-19T00:07:18;102622.81;;;13.18;100.00
4449;BME280;2237;51.870;6.160;2023-04-19T00:09:45;102611.47;;;13.18;100.00
4449;BME280;2237;51.870;6.160;2023-04-19T00:12:12;102614.97;;;13.17;100.00
4449;BME280;2237;51.870;6.160;2023-04-19T00:14:38;102614.97;;;13.17;100.00
4449;BME280;2237;51.870;6.160;2023-04-19T00:17:04;102603.69;;;13.12;100.00
4449;BME280;2237;51.870;6.160;2023-04-19T00:19:31;102599.28;;;13.06;100.00
4449;BME280;2237;51.870;6.160;2023-04-19T00:21:58;102608.84;;;13.18;100.00
4449;BME280;2237;51.870;6.160;2023-04-19T00:24:24;102607.97;;;13.25;100.00
4449;BME280;2237;51.870;6.160;2023-04-19T00:26:50;102601.84;;;13.21;100.00
4449;BME280;2237;51.870;6.160;2023-04-19T00:29:17;102601.84;;;13.29;100.00
4449;BME280;2237;51.870;6.160;2023-04-19T00:31:43;102596.59;;;13.32;100.00
4449;BME280;2237;51.870;6.160;2023-04-19T00:34:10;102593.09;;;13.27;100.00
4449;BME280;2237;51.870;6.160;2023-04-19T00:36:36;102594.88;;;13.26;100.00
4449;BME280;2237;51.870;6.160;2023-04-19T00:39:03;102594.84;;;13.28;100.00
4449;BME280;2237;51.870;6.160;2023-04-19T00:41:29;102598.41;;;13.16;100.00
4449;BME280;2237;51.870;6.160;2023-04-19T00:43:56;102598.44;;;13.10;100.00
4449;BME280;2237;51.870;6.160;2023-04-19T00:46:22;102587.97;;;13.06;100.00
4449;BME280;2237;51.870;6.160;2023-04-19T00:48:49;102593.19;;;13.10;100.00
4449;BME280;2237;51.870;6.160;2023-04-19T00:51:16;102591.44;;;13.17;100.00
4449;BME280;2237;51.870;6.160;2023-04-19T00:53:43;102589.66;;;13.22;100.00
4449;BME280;2237;51.870;6.160;2023-04-19T00:56:10;102588.81;;;13.15;100.00
4449;BME280;2237;51.870;6.160;2023-04-19T00:58:37;102590.53;;;13.18;100.00
4449;BME280;2237;51.870;6.160;2023-04-19T01:01:04;102597.53;;;13.19;100.00
4449;BME280;2237;51.870;6.160;2023-04-19T01:03:31;102588.81;;;13.17;100.00
4449;BME280;2237;51.870;6.160;2023-04-19T01:06:00;102588.81;;;13.15;100.00
4449;BME280;2237;51.870;6.160;2023-04-19T01:08:26;102579.22;;;13.20;100.00
4449;BME280;2237;51.870;6.160;2023-04-19T01:10:53;102580.97;;;13.17;100.00
4449;BME280;2237;51.870;6.160;2023-04-19T01:13:19;102582.72;;;13.15;100.00
4449;BME280;2237;51.870;6.160;2023-04-19T01:15:45;102579.25;;;13.00;100.00
4449;BME280;2237;51.870;6.160;2023-04-19T01:18:12;102576.66;;;12.97;100.00
4449;BME280;2237;51.870;6.160;2023-04-19T01:20:39;102583.63;;;13.01;100.00
4449;BME280;2237;51.870;6.160;2023-04-19T01:23:06;102577.50;;;13.06;100.00
4449;BME280;2237;51.870;6.160;2023-04-19T01:25:36;102565.28;;;13.06;100.00
4449;BME280;2237;51.870;6.160;2023-04-19T01:28:03;102575.81;;;12.94;100.00
4449;BME280;2237;51.870;6.160;2023-04-19T01:30:29;102570.56;;;12.98;100.00
4449;BME280;2237;51.870;6.160;2023-04-19T01:32:56;102574.94;;;12.92;100.00
4449;BME280;2237;51.870;6.160;2023-04-19T01:35:22;102574.09;;;12.88;100.00
4449;BME280;2237;51.870;6.160;2023-04-19T01:37:49;102573.22;;;12.83;100.00
4449;BME280;2237;51.870;6.160;2023-04-19T01:40:16;102577.56;;;12.87;100.00
4449;BME280;2237;51.870;6.160;2023-04-19T01:42:42;102574.13;;;12.82;100.00
4449;BME280;2237;51.870;6.160;2023-04-19T01:45:09;102562.78;;;12.77;100.00
4449;BME280;2237;51.870;6.160;2023-04-19T01:47:35;102561.94;;;12.77;100.00
4449;BME280;2237;51.870;6.160;2023-04-19T01:50:01;102556.75;;;12.62;100.00
4449;BME280;2237;51.870;6.160;2023-04-19T01:52:28;102561.97;;;12.65;100.00
4449;BME280;2237;51.870;6.160;2023-04-19T01:54:54;102568.09;;;12.65;100.00
4449;BME280;2237;51.870;6.160;2023-04-19T01:57:21;102568.97;;;12.55;100.00
4449;BME280;2237;51.870;6.160;2023-04-19T01:59:47;102578.56;;;12.48;100.00
4449;BME280;2237;51.870;6.160;2023-04-19T02:02:13;102579.44;;;12.48;100.00
4449;BME280;2237;51.870;6.160;2023-04-19T02:04:40;102575.06;;;12.50;100.00
4449;BME280;2237;51.870;6.160;2023-04-19T02:07:06;102577.69;;;12.48;100.00
4449;BME280;2237;51.870;6.160;2023-04-19T02:09:37;102569.88;;;12.39;100.00
4449;BME280;2237;51.870;6.160;2023-04-19T02:12:04;102569.88;;;12.39;100.00
4449;BME280;2237;51.870;6.160;2023-04-19T02:14:31;102569.88;;;12.39;100.00
4449;BME280;2237;51.870;6.160;2023-04-19T02:16:57;102568.13;;;12.36;100.00
4449;BME280;2237;51.870;6.160;2023-04-19T02:19:24;102572.53;;;12.21;100.00
4449;BME280;2237;51.870;6.160;2023-04-19T02:21:50;102567.28;;;12.16;100.00
4449;BME280;2237;51.870;6.160;2023-04-19T02:24:18;102571.66;;;12.04;100.00
4449;BME280;2237;51.870;6.160;2023-04-19T02:26:45;102569.91;;;11.87;100.00
4449;BME280;2237;51.870;6.160;2023-04-19T02:29:11;102576.88;;;11.85;100.00
4449;BME280;2237;51.870;6.160;2023-04-19T02:31:38;102578.63;;;11.80;100.00
4449;BME280;2237;51.870;6.160;2023-04-19T02:34:04;102576.00;;;11.73;100.00
4449;BME280;2237;51.870;6.160;2023-04-19T02:36:31;102579.44;;;11.67;100.00
4449;BME280;2237;51.870;6.160;2023-04-19T02:38:57;102575.09;;;11.63;100.00
4449;BME280;2237;51.870;6.160;2023-04-19T02:41:25;102575.09;;;11.66;100.00
4449;BME280;2237;51.870;6.160;2023-04-19T02:43:54;102577.75;;;11.71;100.00
4449;BME280;2237;51.870;6.160;2023-04-19T02:46:21;102572.53;;;11.71;100.00
4449;BME280;2237;51.870;6.160;2023-04-19T02:48:47;102572.50;;;11.78;100.00
4449;BME280;2237;51.870;6.160;2023-04-19T02:51:17;102571.69;;;11.84;100.00
4449;BME280;2237;51.870;6.160;2023-04-19T02:53:43;102572.50;;;11.75;100.00
4449;BME280;2237;51.870;6.160;2023-04-19T02:56:09;102563.84;;;11.84;100.00
4449;BME280;2237;51.870;6.160;2023-04-19T02:58:36;102569.06;;;11.88;100.00
4449;BME280;2237;51.870;6.160;2023-04-19T03:01:02;102560.34;;;12.00;100.00
4449;BME280;2237;51.870;6.160;2023-04-19T03:03:29;102566.44;;;11.95;100.00
4449;BME280;2237;51.870;6.160;2023-04-19T03:05:56;102560.31;;;12.05;100.00
4449;BME280;2237;51.870;6.160;2023-04-19T03:08:22;102561.22;;;11.98;100.00
4449;BME280;2237;51.870;6.160;2023-04-19T03:10:49;102566.44;;;12.02;100.00
4449;BME280;2237;51.870;6.160;2023-04-19T03:13:15;102559.47;;;11.97;100.00
4449;BME280;2237;51.870;6.160;2023-04-19T03:15:41;102566.41;;;11.87;100.00
4449;BME280;2237;51.870;6.160;2023-04-19T03:18:08;102563.81;;;11.87;100.00
4449;BME280;2237;51.870;6.160;2023-04-19T03:20:34;102564.69;;;11.84;100.00
4449;BME280;2237;51.870;6.160;2023-04-19T03:23:01;102560.34;;;11.74;100.00
4449;BME280;2237;51.870;6.160;2023-04-19T03:25:27;102559.47;;;11.77;100.00
4449;BME280;2237;51.870;6.160;2023-04-19T03:27:55;102558.63;;;11.81;100.00
4449;BME280;2237;51.870;6.160;2023-04-19T03:30:21;102551.63;;;11.81;100.00
4449;BME280;2237;51.870;6.160;2023-04-19T03:32:48;102553.38;;;11.96;100.00
4449;BME280;2237;51.870;6.160;2023-04-19T03:35:14;102556.00;;;11.88;100.00
4449;BME280;2237;51.870;6.160;2023-04-19T03:37:41;102546.41;;;11.94;100.00
4449;BME280;2237;51.870;6.160;2023-04-19T03:40:08;102556.84;;;11.84;100.00
4449;BME280;2237;51.870;6.160;2023-04-19T03:42:35;102547.28;;;11.88;100.00
4449;BME280;2237;51.870;6.160;2023-04-19T03:45:02;102549.03;;;11.90;100.00
4449;BME280;2237;51.870;6.160;2023-04-19T03:47:28;102550.78;;;11.82;100.00
4449;BME280;2237;51.870;6.160;2023-04-19T03:49:55;102549.91;;;11.79;100.00
4449;BME280;2237;51.870;6.160;2023-04-19T03:52:22;102551.59;;;11.65;100.00
4449;BME280;2237;51.870;6.160;2023-04-19T03:54:50;102551.59;;;11.59;100.00
4449;BME280;2237;51.870;6.160;2023-04-19T03:57:17;102561.16;;;11.57;100.00
4449;BME280;2237;51.870;6.160;2023-04-19T03:59:43;102558.56;;;11.57;100.00
4449;BME280;2237;51.870;6.160;2023-04-19T04:02:10;102558.56;;;11.66;100.00
4449;BME280;2237;51.870;6.160;2023-04-19T04:04:36;102556.81;;;11.62;100.00
4449;BME280;2237;51.870;6.160;2023-04-19T04:07:03;102552.47;;;11.58;100.00
4449;BME280;2237;51.870;6.160;2023-04-19T04:09:30;102557.69;;;11.59;100.00
4449;BME280;2237;51.870;6.160;2023-04-19T04:11:56;102557.69;;;11.61;100.00
4449;BME280;2237;51.870;6.160;2023-04-19T04:14:23;102560.28;;;11.53;100.00
4449;BME280;2237;51.870;6.160;2023-04-19T04:16:49;102560.25;;;11.38;100.00
4449;BME280;2237;51.870;6.160;2023-04-19T04:19:16;102562.00;;;11.44;100.00
4449;BME280;2237;51.870;6.160;2023-04-19T04:21:43;102560.28;;;11.43;100.00
4449;BME280;2237;51.870;6.160;2023-04-19T04:24:09;102563.78;;;11.54;100.00
4449;BME280;2237;51.870;6.160;2023-04-19T04:26:35;102564.63;;;11.56;100.00
4449;BME280;2237;51.870;6.160;2023-04-19T04:29:04;102568.97;;;11.52;100.00
4449;BME280;2237;51.870;6.160;2023-04-19T04:31:32;102560.31;;;11.52;100.00
4449;BME280;2237;51.870;6.160;2023-04-19T04:34:01;102562.00;;;11.44;100.00
4449;BME280;2237;51.870;6.160;2023-04-19T04:36:28;102570.69;;;11.38;100.00
4449;BME280;2237;51.870;6.160;2023-04-19T04:38:54;102554.13;;;11.21;100.00
4449;BME280;2237;51.870;6.160;2023-04-19T04:41:22;102561.94;;;11.16;100.00
4449;BME280;2237;51.870;6.160;2023-04-19T04:43:48;102561.91;;;11.04;100.00
4449;BME280;2237;51.870;6.160;2023-04-19T04:46:34;102561.84;;;10.88;100.00
4449;BME280;2237;51.870;6.160;2023-04-19T04:49:01;102562.72;;;10.90;100.00
4449;BME280;2237;51.870;6.160;2023-04-19T04:51:27;102562.72;;;10.90;100.00
4449;BME280;2237;51.870;6.160;2023-04-19T04:53:54;102567.09;;;10.94;100.00
4449;BME280;2237;51.870;6.160;2023-04-19T04:56:20;102559.19;;;10.80;100.00
4449;BME280;2237;51.870;6.160;2023-04-19T04:58:47;102567.88;;;10.77;100.00
4449;BME280;2237;51.870;6.160;2023-04-19T05:01:13;102566.16;;;10.80;100.00
4449;BME280;2237;51.870;6.160;2023-04-19T05:03:40;102575.72;;;10.79;100.00
4449;BME280;2237;51.870;6.160;2023-04-19T05:06:06;102574.00;;;10.92;100.00
4449;BME280;2237;51.870;6.160;2023-04-19T05:08:33;102575.75;;;10.88;100.00
4449;BME280;2237;51.870;6.160;2023-04-19T05:10:59;102569.63;;;10.82;100.00
4449;BME280;2237;51.870;6.160;2023-04-19T05:13:25;102580.03;;;10.75;100.00
4449;BME280;2237;51.870;6.160;2023-04-19T05:15:52;102583.50;;;10.74;100.00
4449;BME280;2237;51.870;6.160;2023-04-19T05:18:18;102583.47;;;10.71;100.00
4449;BME280;2237;51.870;6.160;2023-04-19T05:20:44;102584.38;;;10.75;100.00
4449;BME280;2237;51.870;6.160;2023-04-19T05:23:11;102581.75;;;10.72;100.00
4449;BME280;2237;51.870;6.160;2023-04-19T05:25:38;102583.56;;;10.90;100.00
4449;BME280;2237;51.870;6.160;2023-04-19T05:28:04;102590.50;;;10.86;100.00
4449;BME280;2237;51.870;6.160;2023-04-19T05:30:31;102585.34;;;10.95;100.00
4449;BME280;2237;51.870;6.160;2023-04-19T05:32:57;102587.03;;;10.92;100.00
4449;BME280;2237;51.870;6.160;2023-04-19T05:35:24;102582.72;;;10.94;100.00
4449;BME280;2237;51.870;6.160;2023-04-19T05:37:50;102593.16;;;10.98;100.00
4449;BME280;2237;51.870;6.160;2023-04-19T05:40:17;102588.84;;;11.02;100.00
4449;BME280;2237;51.870;6.160;2023-04-19T05:42:44;102591.41;;;10.93;100.00
4449;BME280;2237;51.870;6.160;2023-04-19T05:45:10;102590.56;;;10.98;100.00
4449;BME280;2237;51.870;6.160;2023-04-19T05:47:37;102587.09;;;11.04;100.00
4449;BME280;2237;51.870;6.160;2023-04-19T05:50:04;102581.91;;;11.10;98.49
4449;BME280;2237;51.870;6.160;2023-04-19T05:52:30;102585.38;;;11.09;96.46
4449;BME280;2237;51.870;6.160;2023-04-19T05:54:57;102581.06;;;11.14;94.66
4449;BME280;2237;51.870;6.160;2023-04-19T05:57:24;102586.31;;;11.24;92.70
4449;BME280;2237;51.870;6.160;2023-04-19T05:59:51;102595.84;;;11.21;89.99
4449;BME280;2237;51.870;6.160;2023-04-19T06:02:17;102579.34;;;11.25;88.26
4449;BME280;2237;51.870;6.160;2023-04-19T06:04:44;102594.16;;;11.38;86.58
4449;BME280;2237;51.870;6.160;2023-04-19T06:07:11;102584.63;;;11.48;85.20
4449;BME280;2237;51.870;6.160;2023-04-19T06:09:56;102583.78;;;11.59;83.64
4449;BME280;2237;51.870;6.160;2023-04-19T06:12:22;102594.22;;;11.59;80.68
4449;BME280;2237;51.870;6.160;2023-04-19T06:14:49;102599.47;;;11.68;79.50
4449;BME280;2237;51.870;6.160;2023-04-19T06:17:16;102607.31;;;11.79;78.22
4449;BME280;2237;51.870;6.160;2023-04-19T06:19:50;102596.00;;;11.87;75.42
4449;BME280;2237;51.870;6.160;2023-04-19T06:22:16;102603.84;;;11.90;73.71
4449;BME280;2237;51.870;6.160;2023-04-19T06:24:43;102603.88;;;11.92;71.66
4449;BME280;2237;51.870;6.160;2023-04-19T06:27:11;102589.94;;;11.84;69.82
4449;BME280;2237;51.870;6.160;2023-04-19T06:29:37;102609.09;;;11.95;68.20
4449;BME280;2237;51.870;6.160;2023-04-19T06:32:04;102600.38;;;12.11;66.41
4449;BME280;2237;51.870;6.160;2023-04-19T06:34:30;102602.09;;;12.35;65.10
4449;BME280;2237;51.870;6.160;2023-04-19T06:36:56;102596.88;;;12.41;62.23
4449;BME280;2237;51.870;6.160;2023-04-19T06:39:23;102602.94;;;12.52;60.69
4449;BME280;2237;51.870;6.160;2023-04-19T06:41:49;102602.97;;;12.34;58.58
4449;BME280;2237;51.870;6.160;2023-04-19T06:44:16;102591.63;;;12.47;58.12
4449;BME280;2237;51.870;6.160;2023-04-19T06:46:42;102596.00;;;12.46;56.55
4449;BME280;2237;51.870;6.160;2023-04-19T06:49:09;102598.56;;;12.51;56.50
4449;BME280;2237;51.870;6.160;2023-04-19T06:51:37;102587.28;;;12.46;54.27
4449;BME280;2237;51.870;6.160;2023-04-19T06:54:04;102608.19;;;12.51;54.44
4449;BME280;2237;51.870;6.160;2023-04-19T06:56:47;102598.59;;;12.40;52.92
4449;BME280;2237;51.870;6.160;2023-04-19T06:59:15;102609.06;;;12.31;51.90
4449;BME280;2237;51.870;6.160;2023-04-19T07:01:43;102602.97;;;12.29;51.55
4449;BME280;2237;51.870;6.160;2023-04-19T07:04:10;102609.06;;;12.25;50.86
4449;BME280;2237;51.870;6.160;2023-04-19T07:06:37;102607.31;;;12.39;51.25
4449;BME280;2237;51.870;6.160;2023-04-19T07:09:05;102603.84;;;12.30;50.22
4449;BME280;2237;51.870;6.160;2023-04-19T07:11:31;102602.09;;;12.35;50.79
4449;BME280;2237;51.870;6.160;2023-04-19T07:13:58;102606.47;;;12.31;49.60
4449;BME280;2237;51.870;6.160;2023-04-19T07:16:27;102594.25;;;12.35;49.25
4449;BME280;2237;51.870;6.160;2023-04-19T07:18:54;102600.38;;;12.11;48.70
4449;BME280;2237;51.870;6.160;2023-04-19T07:21:21;102601.25;;;12.03;49.45
4449;BME280;2237;51.870;6.160;2023-04-19T07:23:47;102606.47;;;12.09;50.31
4449;BME280;2237;51.870;6.160;2023-04-19T07:26:13;102596.91;;;12.00;49.20
4449;BME280;2237;51.870;6.160;2023-04-19T07:28:40;102602.13;;;12.15;49.88
4449;BME280;2237;51.870;6.160;2023-04-19T07:31:07;102592.53;;;12.17;49.63
4449;BME280;2237;51.870;6.160;2023-04-19T07:33:33;102596.03;;;12.15;49.88
4449;BME280;2237;51.870;6.160;2023-04-19T07:36:00;102598.63;;;12.22;50.17
4449;BME280;2237;51.870;6.160;2023-04-19T07:38:26;102606.47;;;12.31;49.88
4449;BME280;2237;51.870;6.160;2023-04-19T07:40:53;102600.34;;;12.43;49.48
4449;BME280;2237;51.870;6.160;2023-04-19T07:43:19;102602.94;;;12.46;49.88
4449;BME280;2237;51.870;6.160;2023-04-19T07:45:46;102602.94;;;12.55;49.73
4449;BME280;2237;51.870;6.160;2023-04-19T07:48:12;102612.53;;;12.56;49.25
4449;BME280;2237;51.870;6.160;2023-04-19T07:50:39;102604.69;;;12.42;49.04
4449;BME280;2237;51.870;6.160;2023-04-19T07:53:05;102615.16;;;12.53;49.85
4449;BME280;2237;51.870;6.160;2023-04-19T07:55:32;102604.69;;;12.47;48.81
4449;BME280;2237;51.870;6.160;2023-04-19T07:58:00;102609.91;;;12.58;48.66
4449;BME280;2237;51.870;6.160;2023-04-19T08:00:26;102603.81;;;12.59;48.79
4449;BME280;2237;51.870;6.160;2023-04-19T08:02:55;102606.41;;;12.60;49.11
4449;BME280;2237;51.870;6.160;2023-04-19T08:05:22;102600.34;;;12.46;48.08
4449;BME280;2237;51.870;6.160;2023-04-19T08:07:50;102606.41;;;12.60;48.20
4449;BME280;2237;51.870;6.160;2023-04-19T08:10:17;102615.97;;;12.63;49.39
4449;BME280;2237;51.870;6.160;2023-04-19T08:12:46;102601.19;;;12.60;48.29
4449;BME280;2237;51.870;6.160;2023-04-19T08:15:32;102605.56;;;12.51;48.01
4449;BME280;2237;51.870;6.160;2023-04-19T08:18:01;102602.91;;;12.67;48.58
4449;BME280;2237;51.870;6.160;2023-04-19T08:20:30;102595.94;;;12.63;47.74
4449;BME280;2237;51.870;6.160;2023-04-19T08:22:58;102605.53;;;12.67;47.83
4449;BME280;2237;51.870;6.160;2023-04-19T08:25:36;102598.56;;;12.71;48.42
4449;BME280;2237;51.870;6.160;2023-04-19T08:28:03;102599.44;;;12.67;47.92
4449;BME280;2237;51.870;6.160;2023-04-19T08:30:29;102597.72;;;12.46;46.00
4449;BME280;2237;51.870;6.160;2023-04-19T08:32:56;102593.38;;;12.46;46.13
4449;BME280;2237;51.870;6.160;2023-04-19T08:35:22;102606.41;;;12.60;46.78
4449;BME280;2237;51.870;6.160;2023-04-19T08:37:50;102604.63;;;12.74;46.45
4449;BME280;2237;51.870;6.160;2023-04-19T08:40:16;102592.47;;;12.61;47.50
4449;BME280;2237;51.870;6.160;2023-04-19T08:42:43;102609.03;;;12.68;46.32
4449;BME280;2237;51.870;6.160;2023-04-19T08:45:09;102599.41;;;12.71;45.26
4449;BME280;2237;51.870;6.160;2023-04-19T08:47:53;102593.31;;;12.75;44.31
4449;BME280;2237;51.870;6.160;2023-04-19T08:50:28;102594.13;;;12.89;44.39
4449;BME280;2237;51.870;6.160;2023-04-19T08:52:59;102589.75;;;12.93;43.64
4449;BME280;2237;51.870;6.160;2023-04-19T08:55:46;102588.84;;;13.08;43.79
4449;BME280;2237;51.870;6.160;2023-04-19T08:58:42;102587.03;;;13.22;43.39
4449;BME280;2237;51.870;6.160;2023-04-19T09:01:29;102594.84;;;13.29;42.92
4449;BME280;2237;51.870;6.160;2023-04-19T09:04:05;102582.59;;;13.40;42.26
4449;BME280;2237;51.870;6.160;2023-04-19T09:06:53;102584.31;;;13.40;41.28
4449;BME280;2237;51.870;6.160;2023-04-19T09:09:27;102581.81;;;13.23;41.74
4449;BME280;2237;51.870;6.160;2023-04-19T09:12:16;102596.56;;;13.38;41.48
4449;BME280;2237;51.870;6.160;2023-04-19T09:14:44;102581.72;;;13.40;40.65
4449;BME280;2237;51.870;6.160;2023-04-19T09:17:26;102598.22;;;13.48;39.99
4449;BME280;2237;51.870;6.160;2023-04-19T09:19:53;102585.22;;;13.36;39.91
4449;BME280;2237;51.870;6.160;2023-04-19T09:22:19;102583.50;;;13.35;40.52
4449;BME280;2237;51.870;6.160;2023-04-19T09:24:46;102592.13;;;13.44;41.20
4449;BME280;2237;51.870;6.160;2023-04-19T09:27:35;102588.56;;;13.59;41.59
4449;BME280;2237;51.870;6.160;2023-04-19T09:30:03;102588.66;;;13.41;41.01
4449;BME280;2237;51.870;6.160;2023-04-19T09:32:45;102586.94;;;13.40;41.44
4449;BME280;2237;51.870;6.160;2023-04-19T09:35:12;102583.53;;;13.29;40.88
4449;BME280;2237;51.870;6.160;2023-04-19T09:37:38;102580.81;;;13.41;41.49
4449;BME280;2237;51.870;6.160;2023-04-19T09:40:26;102577.22;;;13.57;41.48
4449;BME280;2237;51.870;6.160;2023-04-19T09:42:54;102577.22;;;13.60;40.48
4449;BME280;2237;51.870;6.160;2023-04-19T09:45:23;102571.13;;;13.58;40.54
4449;BME280;2237;51.870;6.160;2023-04-19T09:48:03;102559.81;;;13.53;40.40
4449;BME280;2237;51.870;6.160;2023-04-19T09:50:30;102577.16;;;13.68;41.31
4449;BME280;2237;51.870;6.160;2023-04-19T09:52:59;102568.28;;;13.90;40.30
4449;BME280;2237;51.870;6.160;2023-04-19T09:55:26;102566.59;;;13.80;39.45
4449;BME280;2237;51.870;6.160;2023-04-19T09:57:56;102580.66;;;13.70;39.52
4449;BME280;2237;51.870;6.160;2023-04-19T10:00:23;102575.44;;;13.65;39.81
4449;BME280;2237;51.870;6.160;2023-04-19T10:02:51;102562.44;;;13.54;39.36
4449;BME280;2237;51.870;6.160;2023-04-19T10:05:23;102557.06;;;13.68;39.40
4449;BME280;2237;51.870;6.160;2023-04-19T10:07:51;102553.47;;;13.84;39.50
4449;BME280;2237;51.870;6.160;2023-04-19T10:10:25;102545.63;;;13.83;39.16
4449;BME280;2237;51.870;6.160;2023-04-19T10:13:00;102561.09;;;14.10;39.58
4449;BME280;2237;51.870;6.160;2023-04-19T10:15:31;102547.97;;;14.13;38.70
4449;BME280;2237;51.870;6.160;2023-04-19T10:18:16;102542.56;;;14.33;39.19
4449;BME280;2237;51.870;6.160;2023-04-19T10:20:50;102537.13;;;14.51;39.52
4449;BME280;2237;51.870;6.160;2023-04-19T10:23:19;102536.38;;;14.38;38.01
4449;BME280;2237;51.870;6.160;2023-04-19T10:25:46;102542.50;;;14.37;38.11
4449;BME280;2237;51.870;6.160;2023-04-19T10:28:16;102537.13;;;14.51;38.11
4449;BME280;2237;51.870;6.160;2023-04-19T10:31:00;102535.00;;;14.80;38.35
4449;BME280;2237;51.870;6.160;2023-04-19T10:33:29;102543.88;;;14.70;37.17
4449;BME280;2237;51.870;6.160;2023-04-19T10:35:58;102525.47;;;14.75;36.81
4449;BME280;2237;51.870;6.160;2023-04-19T10:38:40;102540.25;;;14.80;37.20
4449;BME280;2237;51.870;6.160;2023-04-19T10:41:09;102522.88;;;14.71;37.53
4449;BME280;2237;51.870;6.160;2023-04-19T10:43:48;102527.13;;;14.80;36.59
4449;BME280;2237;51.870;6.160;2023-04-19T10:49:03;102518.16;;;14.99;36.32
4449;BME280;2237;51.870;6.160;2023-04-19T10:51:35;102517.16;;;15.08;34.81
4449;BME280;2237;51.870;6.160;2023-04-19T10:54:09;102519.97;;;14.93;34.05
4449;BME280;2237;51.870;6.160;2023-04-19T10:56:58;102516.16;;;15.15;32.80
4449;BME280;2237;51.870;6.160;2023-04-19T10:59:27;102502.13;;;15.19;32.33
4449;BME280;2237;51.870;6.160;2023-04-19T11:01:56;102518.53;;;15.33;32.27
4449;BME280;2237;51.870;6.160;2023-04-19T11:09:43;102484.97;;;15.55;32.29
4449;BME280;2237;51.870;6.160;2023-04-19T11:12:18;102490.81;;;15.70;32.12
4449;BME280;2237;51.870;6.160;2023-04-19T11:14:45;102495.16;;;15.74;32.56
4449;BME280;2237;51.870;6.160;2023-04-19T11:17:19;102490.75;;;15.75;31.96
4449;BME280;2237;51.870;6.160;2023-04-19T11:19:55;102468.28;;;15.57;32.59
4449;BME280;2237;51.870;6.160;2023-04-19T11:22:33;102473.19;;;15.78;32.53
4449;BME280;2237;51.870;6.160;2023-04-19T11:25:20;102470.31;;;15.91;32.47
4449;BME280;2237;51.870;6.160;2023-04-19T11:27:49;102467.50;;;16.01;31.59
4449;BME280;2237;51.870;6.160;2023-04-19T11:30:17;102474.53;;;16.01;30.28
4449;BME280;2237;51.870;6.160;2023-04-19T11:32:46;102459.56;;;16.04;29.71
4449;BME280;2237;51.870;6.160;2023-04-19T11:35:14;102443.75;;;16.07;29.59
4449;BME280;2237;51.870;6.160;2023-04-19T11:37:40;102452.13;;;16.27;28.82
4449;BME280;2237;51.870;6.160;2023-04-19T11:40:07;102453.03;;;16.25;28.97
4449;BME280;2237;51.870;6.160;2023-04-19T11:42:34;102449.88;;;16.06;28.30
4449;BME280;2237;51.870;6.160;2023-04-19T11:45:01;102449.44;;;16.29;29.57
4449;BME280;2237;51.870;6.160;2023-04-19T11:47:28;102451.00;;;16.39;29.87
4449;BME280;2237;51.870;6.160;2023-04-19T11:49:54;102449.13;;;16.44;29.59
4449;BME280;2237;51.870;6.160;2023-04-19T11:52:24;102448.13;;;16.51;29.02
4449;BME280;2237;51.870;6.160;2023-04-19T11:54:52;102446.88;;;16.69;28.89
4449;BME280;2237;51.870;6.160;2023-04-19T11:57:29;102441.34;;;16.81;29.09
4449;BME280;2237;51.870;6.160;2023-04-19T12:00:09;102440.56;;;16.77;27.72
4449;BME280;2237;51.870;6.160;2023-04-19T12:02:41;102439.56;;;16.81;27.88
4449;BME280;2237;51.870;6.160;2023-04-19T12:05:10;102430.94;;;16.76;27.87
4449;BME280;2237;51.870;6.160;2023-04-19T12:08:05;102424.53;;;16.88;28.86
4449;BME280;2237;51.870;6.160;2023-04-19T12:10:34;102423.53;;;16.92;28.21
4449;BME280;2237;51.870;6.160;2023-04-19T12:13:15;102426.41;;;16.81;27.48
4449;BME280;2237;51.870;6.160;2023-04-19T12:15:43;102420.88;;;16.93;28.35
4449;BME280;2237;51.870;6.160;2023-04-19T12:18:10;102412.31;;;16.85;28.33
4449;BME280;2237;51.870;6.160;2023-04-19T12:20:43;102415.75;;;16.89;29.67
4449;BME280;2237;51.870;6.160;2023-04-19T12:23:10;102412.78;;;17.01;29.46
4449;BME280;2237;51.870;6.160;2023-04-19T12:25:39;102413.19;;;17.21;29.70
4449;BME280;2237;51.870;6.160;2023-04-19T12:28:07;102402.50;;;17.27;29.01
4449;BME280;2237;51.870;6.160;2023-04-19T12:30:36;102407.59;;;17.35;29.12
4449;BME280;2237;51.870;6.160;2023-04-19T12:33:03;102408.25;;;17.43;28.65
4449;BME280;2237;51.870;6.160;2023-04-19T12:35:31;102403.06;;;17.40;27.59
4449;BME280;2237;51.870;6.160;2023-04-19T12:37:59;102387.50;;;17.65;28.62
4449;BME280;2237;51.870;6.160;2023-04-19T12:40:26;102387.16;;;17.78;28.63
4449;BME280;2237;51.870;6.160;2023-04-19T12:42:53;102383.50;;;17.82;28.21
4449;BME280;2237;51.870;6.160;2023-04-19T12:45:19;102372.78;;;17.88;28.50
4449;BME280;2237;51.870;6.160;2023-04-19T12:47:47;102381.25;;;17.99;27.36
4449;BME280;2237;51.870;6.160;2023-04-19T12:50:14;102381.84;;;18.11;27.92
4449;BME280;2237;51.870;6.160;2023-04-19T12:52:41;102383.91;;;18.30;27.70
4449;BME280;2237;51.870;6.160;2023-04-19T12:55:08;102374.84;;;18.39;27.66
4449;BME280;2237;51.870;6.160;2023-04-19T12:57:34;102373.06;;;18.39;27.60
4449;BME280;2237;51.870;6.160;2023-04-19T13:00:01;102368.84;;;18.34;27.29
4449;BME280;2237;51.870;6.160;2023-04-19T13:02:28;102376.44;;;18.44;28.34
4449;BME280;2237;51.870;6.160;2023-04-19T13:04:54;102370.53;;;18.36;27.44
4449;BME280;2237;51.870;6.160;2023-04-19T13:07:21;102358.84;;;18.45;27.65
4449;BME280;2237;51.870;6.160;2023-04-19T13:09:47;102358.31;;;18.34;27.75
4449;BME280;2237;51.870;6.160;2023-04-19T13:12:13;102359.47;;;18.54;28.64
4449;BME280;2237;51.870;6.160;2023-04-19T13:14:40;102350.38;;;18.63;27.83
4449;BME280;2237;51.870;6.160;2023-04-19T13:17:06;102347.44;;;18.72;28.21
4449;BME280;2237;51.870;6.160;2023-04-19T13:19:33;102345.66;;;18.73;28.39
4449;BME280;2237;51.870;6.160;2023-04-19T13:21:59;102327.59;;;18.87;27.63